Time;durP1;ratioP1;P1;durP2;ratioP2;P2;SDS_P1;SDS_P2;PMS_P1;PMS_P2;Temp;Humidity;BMP_temperature;BMP_pressure;BME280_temperature;BME280_humidity;BME280_pressure;Samples;Min_cycle;Max_cycle;Signal;HPM_P1;HPM_P2
2022/08/21 00:01:15;;;;;;;16.50;8.30;;;11.00;99.90;;;;;;5037005;28;20108;-68
2022/08/21 00:03:41;;;;;;;12.68;8.85;;;10.90;99.90;;;;;;5037693;28;20112;-68
2022/08/21 00:06:06;;;;;;;19.38;10.52;;;10.90;99.90;;;;;;5036864;28;20057;-68
2022/08/21 00:08:32;;;;;;;28.70;12.50;;;10.90;99.90;;;;;;5037026;28;20033;-68
2022/08/21 00:10:58;;;;;;;41.65;14.55;;;11.10;99.90;;;;;;5036570;28;20036;-68
2022/08/21 00:13:23;;;;;;;37.45;14.35;;;11.20;99.90;;;;;;5036557;28;20021;-68
2022/08/21 00:15:50;;;;;;;40.30;15.40;;;11.40;99.90;;;;;;5036720;28;20026;-68
2022/08/21 00:18:15;;;;;;;27.98;13.57;;;11.60;99.90;;;;;;5036665;28;20099;-69
2022/08/21 00:20:42;;;;;;;25.77;12.43;;;11.70;99.90;;;;;;5036444;28;20425;-68
2022/08/21 00:23:08;;;;;;;30.13;14.02;;;11.60;99.90;;;;;;5036499;28;20025;-68
2022/08/21 00:25:34;;;;;;;26.90;10.82;;;11.50;99.90;;;;;;5036423;28;20025;-68
2022/08/21 00:28:01;;;;;;;30.50;14.25;;;11.40;99.90;;;;;;5036140;28;20428;-69
2022/08/21 00:30:28;;;;;;;19.55;11.73;;;11.40;99.90;;;;;;5036506;28;20025;-68
2022/08/21 00:32:56;;;;;;;20.23;12.02;;;11.40;99.90;;;;;;5036493;28;20108;-68
2022/08/21 00:35:26;;;;;;;28.88;13.70;;;11.40;99.90;;;;;;5036218;28;20446;-68
2022/08/21 00:37:52;;;;;;;26.17;14.20;;;11.40;99.90;;;;;;5036668;28;20434;-68
2022/08/21 00:40:23;;;;;;;25.08;12.40;;;11.50;99.90;;;;;;5035873;28;20030;-68
2022/08/21 00:42:49;;;;;;;32.83;13.75;;;11.50;99.90;;;;;;5036690;28;20467;-68
2022/08/21 00:45:15;;;;;;;36.28;15.65;;;11.60;99.90;;;;;;5036213;28;20032;-68
2022/08/21 00:47:41;;;;;;;49.45;17.35;;;11.60;99.90;;;;;;5035781;28;20037;-68
2022/08/21 00:50:08;;;;;;;28.38;16.08;;;11.80;99.90;;;;;;5035769;28;20107;-69
2022/08/21 00:52:36;;;;;;;32.03;14.93;;;11.80;99.90;;;;;;5035895;28;20028;-68
2022/08/21 00:55:07;;;;;;;29.83;15.63;;;11.70;99.90;;;;;;5035802;28;20485;-68
2022/08/21 00:57:39;;;;;;;29.10;14.82;;;11.70;99.90;;;;;;5036067;28;20385;-68
2022/08/21 01:00:09;;;;;;;30.17;13.18;;;11.60;99.90;;;;;;5036164;28;20528;-68
2022/08/21 01:02:34;;;;;;;25.55;11.63;;;11.60;99.90;;;;;;5035167;28;20037;-68
2022/08/21 01:05:00;;;;;;;26.88;13.60;;;11.50;99.90;;;;;;5036048;28;20025;-68
2022/08/21 01:07:26;;;;;;;30.23;12.60;;;11.40;99.90;;;;;;5035479;28;20033;-68
2022/08/21 01:09:51;;;;;;;20.70;12.32;;;11.40;99.90;;;;;;5036062;28;20389;-68
2022/08/21 01:12:18;;;;;;;24.95;12.75;;;11.30;99.90;;;;;;5035642;28;20025;-68
2022/08/21 01:14:44;;;;;;;21.50;11.13;;;11.30;99.90;;;;;;5035462;28;20026;-68
2022/08/21 01:17:13;;;;;;;26.38;12.40;;;11.20;99.90;;;;;;5035994;28;20088;-68
2022/08/21 01:19:39;;;;;;;23.88;13.40;;;11.10;99.90;;;;;;5034733;28;20056;-68
2022/08/21 01:22:04;;;;;;;26.88;12.32;;;11.10;99.90;;;;;;5031393;28;20069;-68
2022/08/21 01:24:31;;;;;;;19.95;9.82;;;11.10;99.90;;;;;;5015526;28;20034;-68
2022/08/21 01:26:58;;;;;;;14.63;9.85;;;11.00;99.90;;;;;;5016278;28;20029;-69
2022/08/21 01:29:33;;;;;;;16.73;10.38;;;10.90;99.90;;;;;;5033848;28;20481;-69
2022/08/21 01:32:04;;;;;;;18.15;10.07;;;10.80;99.90;;;;;;5015666;28;20021;-68
2022/08/21 01:34:30;;;;;;;25.20;9.88;;;10.80;99.90;;;;;;5015366;28;20474;-69
2022/08/21 01:36:56;;;;;;;20.23;10.07;;;10.70;99.90;;;;;;5034087;28;20025;-68
2022/08/21 01:39:22;;;;;;;21.83;10.50;;;10.70;99.90;;;;;;5034668;28;20029;-68
2022/08/21 01:41:47;;;;;;;21.42;10.55;;;10.70;99.90;;;;;;5035003;28;20026;-68
2022/08/21 01:44:13;;;;;;;18.10;10.07;;;10.60;99.90;;;;;;5033845;28;20044;-68
2022/08/21 01:46:39;;;;;;;18.63;9.77;;;10.70;99.90;;;;;;5035514;28;20436;-68
2022/08/21 01:49:04;;;;;;;18.55;10.13;;;10.70;99.90;;;;;;5034540;28;20034;-70
2022/08/21 01:51:30;;;;;;;21.63;9.88;;;10.70;99.90;;;;;;5034676;28;20382;-69
2022/08/21 01:53:56;;;;;;;17.77;10.00;;;10.60;99.90;;;;;;5034693;28;20021;-69
2022/08/21 01:56:22;;;;;;;22.52;12.00;;;10.60;99.90;;;;;;5034553;28;20028;-69
2022/08/21 01:58:48;;;;;;;17.60;11.18;;;10.60;99.90;;;;;;5034583;28;20017;-69
2022/08/21 02:01:14;;;;;;;18.83;12.40;;;10.60;99.90;;;;;;5034445;28;20058;-69
2022/08/21 02:03:41;;;;;;;17.77;9.90;;;10.60;99.90;;;;;;5034477;28;20100;-69
2022/08/21 02:06:07;;;;;;;18.52;10.88;;;10.60;99.90;;;;;;5034326;28;20021;-69
2022/08/21 02:08:34;;;;;;;14.48;11.30;;;10.60;99.90;;;;;;5034394;28;20500;-69
2022/08/21 02:11:00;;;;;;;22.70;11.13;;;10.60;99.90;;;;;;5034155;28;20409;-69
2022/08/21 02:13:26;;;;;;;24.90;12.93;;;10.60;99.90;;;;;;5034241;28;20100;-69
2022/08/21 02:15:51;;;;;;;25.85;12.20;;;10.60;99.90;;;;;;5033535;28;20018;-69
2022/08/21 02:18:17;;;;;;;20.38;11.52;;;10.60;99.90;;;;;;5034204;28;20094;-69
2022/08/21 02:20:46;;;;;;;17.88;11.25;;;10.60;99.90;;;;;;5034359;28;20474;-69
2022/08/21 02:23:13;;;;;;;20.42;10.07;;;10.50;99.90;;;;;;5034119;28;20036;-69
2022/08/21 02:25:39;;;;;;;19.95;10.38;;;10.50;99.90;;;;;;5034899;28;20026;-69
2022/08/21 02:28:09;;;;;;;20.88;11.40;;;10.50;99.90;;;;;;5034514;28;20037;-69
2022/08/21 02:30:38;;;;;;;22.80;10.50;;;10.50;99.90;;;;;;5033902;28;20056;-69
2022/08/21 02:33:05;;;;;;;19.33;10.13;;;10.50;99.90;;;;;;5034119;28;20018;-70
2022/08/21 02:35:30;;;;;;;19.90;11.10;;;10.50;99.90;;;;;;5034056;28;20033;-69
2022/08/21 02:38:03;;;;;;;14.07;9.70;;;10.50;99.90;;;;;;5033883;28;20101;-69
2022/08/21 02:40:33;;;;;;;23.33;11.27;;;10.50;99.90;;;;;;5033785;28;20025;-69
2022/08/21 02:42:59;;;;;;;25.58;11.77;;;10.50;99.90;;;;;;5033679;28;20022;-69
2022/08/21 02:45:28;;;;;;;30.60;13.85;;;10.50;99.90;;;;;;5033710;28;20072;-69
2022/08/21 02:47:58;;;;;;;26.00;11.40;;;10.70;99.90;;;;;;5033621;28;20037;-69
2022/08/21 02:50:30;;;;;;;18.45;11.63;;;10.60;99.90;;;;;;5033548;28;20556;-69
2022/08/21 02:52:56;;;;;;;22.80;11.93;;;10.60;99.90;;;;;;5033874;28;20112;-69
2022/08/21 02:55:26;;;;;;;16.05;11.02;;;10.60;99.90;;;;;;5033613;28;20029;-70
2022/08/21 02:57:52;;;;;;;18.13;11.57;;;10.50;99.90;;;;;;5033622;28;20537;-70
2022/08/21 03:00:19;;;;;;;26.65;11.00;;;10.60;99.90;;;;;;5033682;28;20480;-70
2022/08/21 03:02:46;;;;;;;22.52;11.90;;;10.50;99.90;;;;;;5033948;28;20057;-70
2022/08/21 03:05:12;;;;;;;20.08;11.07;;;10.60;99.90;;;;;;5033364;28;20071;-70
2022/08/21 03:07:39;;;;;;;27.17;13.02;;;10.50;99.90;;;;;;5033757;28;20112;-70
2022/08/21 03:10:06;;;;;;;34.97;15.55;;;10.70;99.90;;;;;;5033537;28;20017;-70
2022/08/21 03:12:32;;;;;;;24.90;13.02;;;10.90;99.90;;;;;;5033478;28;20501;-70
2022/08/21 03:14:57;;;;;;;19.35;13.38;;;10.80;99.90;;;;;;5034048;28;20030;-70
2022/08/21 03:17:24;;;;;;;25.90;13.50;;;10.80;99.90;;;;;;5033381;28;20028;-70
2022/08/21 03:19:49;;;;;;;22.83;13.63;;;10.90;99.90;;;;;;5033391;28;20053;-70
2022/08/21 03:22:15;;;;;;;17.17;11.70;;;10.90;99.90;;;;;;5033345;28;20030;-70
2022/08/21 03:24:41;;;;;;;24.05;15.70;;;10.90;99.90;;;;;;5033461;28;20487;-70
2022/08/21 03:27:06;;;;;;;24.70;12.48;;;11.00;99.90;;;;;;5036916;28;20057;-70
2022/08/21 03:29:32;;;;;;;20.58;12.52;;;11.10;99.90;;;;;;5037407;28;20060;-70
2022/08/21 03:31:57;;;;;;;22.83;12.68;;;11.20;99.90;;;;;;5037478;28;20048;-70
2022/08/21 03:34:23;;;;;;;21.13;13.43;;;11.20;99.90;;;;;;5037357;28;20064;-70
2022/08/21 03:36:49;;;;;;;35.03;15.77;;;11.30;99.90;;;;;;5037412;28;20025;-70
2022/08/21 03:39:16;;;;;;;22.33;14.10;;;11.40;99.90;;;;;;5037349;28;20470;-70
2022/08/21 03:41:42;;;;;;;26.88;14.77;;;11.60;99.90;;;;;;5037607;28;20363;-70
2022/08/21 03:44:07;;;;;;;34.15;17.52;;;11.60;99.90;;;;;;5037060;28;20074;-70
2022/08/21 03:46:33;;;;;;;45.05;18.73;;;11.80;99.90;;;;;;5036975;28;20119;-70
2022/08/21 03:48:59;;;;;;;29.40;15.10;;;11.90;99.90;;;;;;5037108;28;20147;-70
2022/08/21 03:51:25;;;;;;;45.20;18.38;;;11.90;99.90;;;;;;5037068;28;20101;-69
2022/08/21 03:53:51;;;;;;;28.35;18.05;;;12.00;99.90;;;;;;5036897;28;20033;-69
2022/08/21 03:56:17;;;;;;;38.83;18.60;;;12.10;99.90;;;;;;5036825;28;20017;-69
2022/08/21 03:58:43;;;;;;;28.60;17.92;;;12.30;99.90;;;;;;5036713;28;20029;-69
2022/08/21 04:01:09;;;;;;;28.30;15.65;;;12.30;99.90;;;;;;5036788;28;20036;-69
2022/08/21 04:03:36;;;;;;;24.08;13.80;;;12.30;99.90;;;;;;5036615;28;20022;-69
2022/08/21 04:06:01;;;;;;;35.80;15.23;;;12.20;99.90;;;;;;5036619;28;20057;-69
2022/08/21 04:08:27;;;;;;;24.70;15.43;;;12.10;99.90;;;;;;5036821;28;20064;-69
2022/08/21 04:10:56;;;;;;;29.70;13.80;;;12.00;99.90;;;;;;5036490;28;20117;-69
2022/08/21 04:13:22;;;;;;;31.60;14.57;;;12.10;99.90;;;;;;5036848;28;20040;-69
2022/08/21 04:15:48;;;;;;;31.52;13.57;;;12.10;99.90;;;;;;5036496;28;20067;-69
2022/08/21 04:18:14;;;;;;;20.85;11.80;;;12.10;99.90;;;;;;5036452;28;20076;-69
2022/08/21 04:20:43;;;;;;;24.42;12.98;;;11.90;99.90;;;;;;5036756;28;20025;-69
2022/08/21 04:23:08;;;;;;;25.98;12.20;;;12.00;99.90;;;;;;5036507;28;20025;-69
2022/08/21 04:25:35;;;;;;;25.25;13.38;;;11.90;99.90;;;;;;5036700;28;20090;-70
2022/08/21 04:28:01;;;;;;;23.85;12.77;;;11.90;99.90;;;;;;5036396;28;20473;-70
2022/08/21 04:30:27;;;;;;;41.90;14.57;;;11.90;99.90;;;;;;5036623;28;20021;-70
2022/08/21 04:32:53;;;;;;;31.83;15.10;;;11.90;99.90;;;;;;5036182;28;20055;-70
2022/08/21 04:35:21;;;;;;;30.48;14.88;;;12.00;99.90;;;;;;5036295;28;20025;-70
2022/08/21 04:37:47;;;;;;;26.40;14.00;;;12.00;99.90;;;;;;5035447;28;20482;-70
2022/08/21 04:40:14;;;;;;;24.58;13.98;;;12.10;99.90;;;;;;5036230;28;20041;-71
2022/08/21 04:42:55;;;;;;;24.70;13.27;;;12.00;99.90;;;;;;5036130;28;20033;-70
2022/08/21 04:45:30;;;;;;;27.80;14.93;;;12.10;99.90;;;;;;5036073;28;20061;-70
2022/08/21 04:47:58;;;;;;;26.75;15.23;;;12.10;99.90;;;;;;5036378;28;20037;-70
2022/08/21 04:50:49;;;;;;;38.65;14.80;;;12.10;99.90;;;;;;5036453;28;20037;-70
2022/08/21 04:53:27;;;;;;;41.72;18.33;;;12.10;99.90;;;;;;5036471;28;20413;-70
2022/08/21 04:55:55;;;;;;;38.78;18.13;;;12.30;99.90;;;;;;5034456;28;20022;-70
2022/08/21 04:58:23;;;;;;;27.85;15.52;;;12.40;99.90;;;;;;5035527;28;20075;-70
2022/08/21 05:00:51;;;;;;;22.95;13.43;;;12.40;99.90;;;;;;5035304;28;20469;-70
2022/08/21 05:03:17;;;;;;;35.10;16.90;;;12.40;99.90;;;;;;5035858;28;20022;-70
2022/08/21 05:05:43;;;;;;;32.10;15.75;;;12.40;99.90;;;;;;5035763;28;20037;-70
2022/08/21 05:08:14;;;;;;;25.95;14.27;;;12.50;99.90;;;;;;5035602;28;20030;-70
2022/08/21 05:10:40;;;;;;;32.67;16.80;;;12.60;99.90;;;;;;5035990;28;20068;-70
2022/08/21 05:13:06;;;;;;;32.45;16.88;;;12.70;99.90;;;;;;5035420;28;20049;-70
2022/08/21 05:15:32;;;;;;;31.50;16.13;;;12.80;99.90;;;;;;5034298;28;20206;-70
2022/08/21 05:17:58;;;;;;;39.80;16.95;;;12.80;99.90;;;;;;5035929;28;20501;-70
2022/08/21 05:20:24;;;;;;;33.83;16.85;;;13.00;99.90;;;;;;5035457;28;20032;-70
2022/08/21 05:22:49;;;;;;;31.98;15.85;;;13.00;99.90;;;;;;5035307;28;20112;-70
2022/08/21 05:25:15;;;;;;;39.10;16.23;;;13.10;99.90;;;;;;5035371;28;20453;-70
2022/08/21 05:27:41;;;;;;;44.28;16.33;;;13.30;99.90;;;;;;5035816;28;20117;-70
2022/08/21 05:30:08;;;;;;;40.00;15.55;;;13.30;99.90;;;;;;5035173;28;20108;-70
2022/08/21 05:32:34;;;;;;;32.22;15.07;;;13.40;99.90;;;;;;5035328;28;20022;-70
2022/08/21 05:35:00;;;;;;;33.70;14.32;;;13.50;99.90;;;;;;5035370;28;20029;-70
2022/08/21 05:37:26;;;;;;;29.50;13.13;;;13.60;99.90;;;;;;5034896;28;20032;-70
2022/08/21 05:39:51;;;;;;;30.40;13.18;;;13.70;99.90;;;;;;5035118;28;20040;-70
2022/08/21 05:42:17;;;;;;;33.55;12.85;;;13.80;99.90;;;;;;5035153;28;20028;-70
2022/08/21 05:44:42;;;;;;;30.23;12.13;;;13.90;99.90;;;;;;5033688;28;20481;-71
2022/08/21 05:47:10;;;;;;;40.15;11.57;;;14.00;99.90;;;;;;5034518;28;20029;-70
2022/08/21 05:49:36;;;;;;;24.52;10.88;;;14.10;99.90;;;;;;5033920;28;20025;-70
2022/08/21 05:52:03;;;;;;;22.25;10.68;;;14.20;99.90;;;;;;5034822;28;20108;-70
2022/08/21 05:54:29;;;;;;;19.33;9.32;;;14.30;99.90;;;;;;5034706;28;20060;-70
2022/08/21 05:56:55;;;;;;;21.67;8.32;;;14.40;99.90;;;;;;5034664;28;20028;-70
2022/08/21 05:59:21;;;;;;;20.85;8.02;;;14.50;99.90;;;;;;5034715;28;20030;-70
2022/08/21 06:01:47;;;;;;;18.40;8.07;;;14.70;99.90;;;;;;5034637;28;20033;-70
2022/08/21 06:04:13;;;;;;;17.30;7.32;;;14.80;99.90;;;;;;5034855;28;20113;-70
2022/08/21 06:06:39;;;;;;;27.80;7.90;;;14.90;99.90;;;;;;5034367;28;20072;-70
2022/08/21 06:09:05;;;;;;;16.00;5.88;;;15.10;99.90;;;;;;5034411;28;20022;-70
2022/08/21 06:11:32;;;;;;;18.08;5.35;;;15.20;99.90;;;;;;5034401;28;20167;-71
2022/08/21 06:13:58;;;;;;;24.30;5.10;;;15.40;99.90;;;;;;5034540;28;20022;-70
2022/08/21 06:16:24;;;;;;;34.35;5.65;;;15.60;99.90;;;;;;5034269;28;20028;-70
2022/08/21 06:18:50;;;;;;;16.35;4.47;;;15.80;99.90;;;;;;5034471;28;20038;-70
2022/08/21 06:21:15;;;;;;;22.10;5.20;;;15.90;99.90;;;;;;5034295;28;20021;-71
2022/08/21 06:23:42;;;;;;;16.70;4.00;;;16.10;99.90;;;;;;5034229;28;20025;-71
2022/08/21 06:26:08;;;;;;;19.08;4.78;;;16.20;99.90;;;;;;5034197;28;20033;-71
2022/08/21 06:28:36;;;;;;;11.73;3.78;;;16.40;99.90;;;;;;5034312;28;20393;-71
2022/08/21 06:31:10;;;;;;;10.73;4.18;;;16.50;99.90;;;;;;5034108;28;20492;-71
2022/08/21 06:33:36;;;;;;;13.07;3.88;;;16.60;99.90;;;;;;5034234;28;20515;-71
2022/08/21 06:36:02;;;;;;;13.00;4.05;;;16.90;99.90;;;;;;5034229;28;20049;-70
2022/08/21 06:38:27;;;;;;;11.93;3.28;;;17.00;99.90;;;;;;5034020;28;20044;-70
2022/08/21 06:40:53;;;;;;;13.15;2.92;;;17.20;99.90;;;;;;5034125;28;20053;-70
2022/08/21 06:43:18;;;;;;;16.38;2.92;;;17.40;99.90;;;;;;5034029;28;20021;-70
2022/08/21 06:45:44;;;;;;;13.07;2.60;;;17.60;99.90;;;;;;5033821;28;20026;-70
2022/08/21 06:48:10;;;;;;;11.38;2.40;;;17.70;99.90;;;;;;5033795;28;20442;-70
2022/08/21 06:50:36;;;;;;;13.82;2.40;;;17.90;99.90;;;;;;5033819;28;20060;-70
2022/08/21 06:53:07;;;;;;;20.80;4.03;;;18.00;99.90;;;;;;5033878;28;20025;-70
2022/08/21 06:55:34;;;;;;;8.38;2.40;;;18.20;99.90;;;;;;5034276;28;20040;-70
2022/08/21 06:58:00;;;;;;;13.18;3.75;;;18.30;99.90;;;;;;5033914;28;20111;-70
2022/08/21 07:00:26;;;;;;;9.82;2.28;;;18.40;99.90;;;;;;5033526;28;20025;-70
2022/08/21 07:02:51;;;;;;;17.58;3.15;;;18.60;99.90;;;;;;5033714;28;20034;-70
2022/08/21 07:05:17;;;;;;;11.43;2.60;;;18.80;99.90;;;;;;5033594;28;20032;-70
2022/08/21 07:07:43;;;;;;;10.63;2.88;;;18.90;99.90;;;;;;5033373;28;20033;-70
2022/08/21 07:10:09;;;;;;;7.80;2.35;;;19.00;99.90;;;;;;5033750;28;20072;-70
2022/08/21 07:12:35;;;;;;;8.60;2.95;;;19.10;99.90;;;;;;5033986;28;20069;-70
2022/08/21 07:15:01;;;;;;;7.65;2.60;;;19.30;99.90;;;;;;5034198;28;20064;-70
2022/08/21 07:17:27;;;;;;;13.55;3.30;;;19.30;99.90;;;;;;5033565;28;20021;-70
2022/08/21 07:19:52;;;;;;;8.82;2.40;;;19.50;99.90;;;;;;5033879;28;20396;-70
2022/08/21 07:22:21;;;;;;;18.20;2.83;;;19.50;99.90;;;;;;5033400;28;20021;-70
2022/08/21 07:24:46;;;;;;;13.20;2.67;;;19.60;99.90;;;;;;5033976;28;20022;-70
2022/08/21 07:27:12;;;;;;;8.02;2.70;;;19.70;99.90;;;;;;5033145;28;20029;-70
2022/08/21 07:29:38;;;;;;;16.92;3.40;;;19.80;99.90;;;;;;5033361;28;20049;-70
2022/08/21 07:32:04;;;;;;;13.07;2.65;;;19.80;99.90;;;;;;5033417;28;20017;-70
2022/08/21 07:34:30;;;;;;;13.90;2.47;;;20.00;99.90;;;;;;5033412;28;20026;-70
2022/08/21 07:36:56;;;;;;;12.07;2.88;;;20.10;99.90;;;;;;5033285;28;20022;-70
2022/08/21 07:39:22;;;;;;;7.40;2.08;;;20.20;99.90;;;;;;5033455;28;20104;-71
2022/08/21 07:41:47;;;;;;;10.98;2.90;;;20.40;99.90;;;;;;5033298;28;20065;-71
2022/08/21 07:44:13;;;;;;;13.32;2.67;;;20.50;99.90;;;;;;5033351;28;20021;-71
2022/08/21 07:46:38;;;;;;;12.25;3.47;;;20.60;99.90;;;;;;5057632;23;20041;-69
2022/08/21 07:49:04;;;;;;;19.20;3.38;;;20.60;99.90;;;;;;5052787;28;20039;-70
2022/08/21 07:51:30;;;;;;;15.13;3.05;;;20.70;99.90;;;;;;5053158;28;20029;-69
2022/08/21 07:53:57;;;;;;;14.73;2.75;;;20.90;99.90;;;;;;5052837;28;20535;-69
2022/08/21 07:56:23;;;;;;;14.48;3.10;;;21.00;99.90;;;;;;5052847;28;20041;-69
2022/08/21 07:58:49;;;;;;;7.80;2.65;;;21.20;99.90;;;;;;5052777;28;20021;-69
2022/08/21 08:01:14;;;;;;;17.85;3.30;;;21.20;99.90;;;;;;5052788;28;20040;-69
2022/08/21 08:03:40;;;;;;;11.00;2.22;;;21.40;99.90;;;;;;5052857;28;20028;-70
2022/08/21 08:06:08;;;;;;;10.35;2.75;;;21.50;99.90;;;;;;5052648;28;20438;-70
2022/08/21 08:08:34;;;;;;;10.48;2.88;;;21.50;99.90;;;;;;5052965;28;20029;-69
2022/08/21 08:11:01;;;;;;;13.50;2.35;;;21.50;99.90;;;;;;5052792;28;20040;-69
2022/08/21 08:13:27;;;;;;;11.30;3.00;;;21.60;99.90;;;;;;5055092;28;20468;-69
2022/08/21 08:15:53;;;;;;;17.40;2.95;;;21.90;99.90;;;;;;5056108;28;20013;-68
2022/08/21 08:18:18;;;;;;;9.35;2.42;;;22.00;99.90;;;;;;5055879;28;20025;-69
2022/08/21 08:20:44;;;;;;;10.18;2.90;;;22.00;99.90;;;;;;5056369;28;20029;-69
2022/08/21 08:23:12;;;;;;;9.77;2.03;;;22.10;99.90;;;;;;5056534;28;20036;-69
2022/08/21 08:25:38;;;;;;;13.45;2.25;;;22.40;99.90;;;;;;5056537;28;20052;-69
2022/08/21 08:28:05;;;;;;;17.63;2.72;;;22.20;99.90;;;;;;5055995;28;20029;-70
2022/08/21 08:30:31;;;;;;;20.75;3.63;;;22.40;99.90;;;;;;5056383;28;20029;-68
2022/08/21 08:32:57;;;;;;;14.60;2.88;;;22.50;99.90;;;;;;5056119;28;20025;-69
2022/08/21 08:35:24;;;;;;;12.38;2.70;;;22.60;99.90;;;;;;5056055;28;20024;-68
2022/08/21 08:37:50;;;;;;;6.20;1.83;;;22.70;99.90;;;;;;5055987;28;20021;-70
2022/08/21 08:40:33;;;;;;;7.88;2.15;;;22.70;99.90;;;;;;5056116;28;20036;-69
2022/08/21 08:42:59;;;;;;;16.88;2.22;;;22.60;99.90;;;;;;5056221;28;20032;-68
2022/08/21 08:45:26;;;;;;;7.97;2.15;;;22.60;99.90;;;;;;5055903;28;20036;-70
2022/08/21 08:48:04;;;;;;;10.40;2.50;;;22.50;99.90;;;;;;5055722;28;20040;-70
2022/08/21 08:50:54;;;;;;;6.47;1.65;;;22.50;99.90;;;;;;5055801;28;20021;-69
2022/08/21 08:53:48;;;;;;;5.25;1.65;;;22.70;99.90;;;;;;5055825;28;20077;-68
2022/08/21 08:56:14;;;;;;;12.80;2.92;;;22.90;99.90;;;;;;5050623;28;20041;-67
2022/08/21 08:58:44;;;;;;;10.95;2.38;;;23.20;99.90;;;;;;5055850;28;20028;-67
2022/08/21 09:01:17;;;;;;;11.73;2.30;;;23.20;99.90;;;;;;5055698;28;20036;-67
2022/08/21 09:03:43;;;;;;;13.13;3.05;;;23.10;99.90;;;;;;5055543;28;20028;-67
2022/08/21 09:06:40;;;;;;;8.98;2.10;;;23.10;99.90;;;;;;5055332;28;20048;-68
2022/08/21 09:09:14;;;;;;;11.05;2.15;;;23.10;99.90;;;;;;5055308;28;20029;-68
2022/08/21 09:11:51;;;;;;;9.15;1.98;;;23.00;99.90;;;;;;5055125;28;20025;-68
2022/08/21 09:14:49;;;;;;;11.05;1.75;;;23.10;99.90;;;;;;5055608;28;20116;-68
2022/08/21 09:17:49;;;;;;;8.30;2.10;;;23.30;99.90;;;;;;5055230;28;20024;-68
2022/08/21 09:20:27;;;;;;;15.52;2.58;;;23.40;99.90;;;;;;5007665;28;20393;-68
2022/08/21 09:23:28;;;;;;;7.95;2.00;;;23.30;99.90;;;;;;5053100;28;20045;-70
2022/08/21 09:26:18;;;;;;;7.65;2.08;;;23.50;99.90;;;;;;5035206;28;20392;-68
2022/08/21 09:28:47;;;;;;;8.02;2.28;;;23.60;99.90;;;;;;5037098;28;20017;-68
2022/08/21 09:31:32;;;;;;;9.98;1.85;;;23.80;99.90;;;;;;5035328;28;20492;-68
2022/08/21 09:34:09;;;;;;;8.65;1.65;;;23.90;99.90;;;;;;5038314;28;20155;-68
2022/08/21 09:36:37;;;;;;;7.75;2.20;;;23.80;99.90;;;;;;5055176;28;20017;-68
2022/08/21 09:39:04;;;;;;;6.72;2.10;;;23.70;99.90;;;;;;5054917;28;20017;-68
2022/08/21 09:41:34;;;;;;;5.57;1.92;;;23.80;99.90;;;;;;5055001;28;20100;-68
2022/08/21 09:44:00;;;;;;;11.27;2.10;;;24.00;99.90;;;;;;5054817;28;20464;-68
2022/08/21 09:46:27;;;;;;;7.20;1.85;;;24.00;99.90;;;;;;5054630;28;20025;-69
2022/08/21 09:48:56;;;;;;;8.32;2.33;;;23.80;99.90;;;;;;5054641;28;20025;-69
2022/08/21 09:51:50;;;;;;;8.65;1.70;;;23.80;99.90;;;;;;5054553;28;20060;-69
2022/08/21 09:54:17;;;;;;;;;;;23.90;99.90;;;;;;5055043;28;20033;-68
2022/08/21 09:59:45;;;;;;;7.65;1.80;;;23.70;99.90;;;;;;5054486;28;20036;-68
2022/08/21 10:02:23;;;;;;;10.45;2.05;;;23.80;99.90;;;;;;5054426;28;20025;-68
2022/08/21 10:04:57;;;;;;;8.35;2.80;;;23.90;99.90;;;;;;5054630;28;20071;-69
2022/08/21 10:07:26;;;;;;;8.45;2.70;;;23.90;99.90;;;;;;5054535;28;20020;-70
2022/08/21 10:10:00;;;;;;;18.08;2.17;;;24.00;99.90;;;;;;5054179;28;20086;-69
2022/08/21 10:12:31;;;;;;;;;;;24.20;99.90;;;;;;5054625;28;20017;-69
2022/08/21 10:15:21;;;;;;;9.80;2.28;;;24.30;99.90;;;;;;5054486;28;19904;-68
2022/08/21 10:17:47;;;;;;;8.05;1.65;;;24.00;99.90;;;;;;5054278;28;20097;-68
2022/08/21 10:20:31;;;;;;;9.32;2.33;;;24.10;99.90;;;;;;5054046;28;20104;-68
2022/08/21 10:23:26;;;;;;;17.75;3.10;;;23.90;99.90;;;;;;5054103;28;20021;-68
2022/08/21 10:26:01;;;;;;;11.23;2.53;;;24.00;99.90;;;;;;5053906;28;20043;-69
2022/08/21 10:28:27;;;;;;;10.35;2.28;;;24.00;99.90;;;;;;5053805;28;20107;-68
2022/08/21 10:31:15;;;;;;;20.60;3.15;;;24.20;99.90;;;;;;5053849;28;20103;-68
2022/08/21 10:33:50;;;;;;;19.10;3.55;;;24.10;99.90;;;;;;5053722;28;20025;-68
2022/08/21 10:36:25;;;;;;;11.25;2.53;;;24.00;99.90;;;;;;5053512;28;20035;-68
2022/08/21 10:38:59;;;;;;;10.77;2.55;;;23.90;99.90;;;;;;5054108;28;20180;-68
2022/08/21 10:42:19;;;;;;;17.20;2.63;;;24.30;99.90;;;;;;5053955;28;20029;-68
2022/08/21 10:44:44;;;;;;;23.90;3.35;;;24.20;99.90;;;;;;5011888;28;20474;-69
2022/08/21 10:47:16;;;;;;;19.33;3.30;;;24.20;99.90;;;;;;5011669;28;20088;-70
2022/08/21 10:49:56;;;;;;;12.75;2.90;;;24.30;99.90;;;;;;5032853;28;20041;-68
2022/08/21 10:52:44;;;;;;;16.02;3.28;;;24.40;99.90;;;;;;5053565;28;20461;-70
2022/08/21 10:55:22;;;;;;;15.65;2.50;;;24.20;99.90;;;;;;5053367;28;20071;-70
2022/08/21 10:57:48;;;;;;;13.50;2.90;;;24.10;99.90;;;;;;5053388;28;20029;-70
2022/08/21 11:00:18;;;;;;;16.52;3.25;;;23.90;99.90;;;;;;5053739;28;20040;-68
2022/08/21 11:02:59;;;;;;;19.15;3.80;;;23.90;99.90;;;;;;5053427;28;20029;-68
2022/08/21 11:05:29;;;;;;;20.30;3.83;;;23.70;99.90;;;;;;5053449;28;20040;-69
2022/08/21 11:08:00;;;;;;;19.48;2.63;;;23.70;99.90;;;;;;5053582;28;20029;-68
2022/08/21 11:10:30;;;;;;;13.82;3.40;;;23.50;99.90;;;;;;5053466;28;20057;-69
2022/08/21 11:13:08;;;;;;;20.60;3.28;;;23.70;99.90;;;;;;5053371;28;20437;-69
2022/08/21 11:16:01;;;;;;;19.45;4.63;;;24.10;99.90;;;;;;5053289;28;20029;-69
2022/08/21 11:18:27;;;;;;;20.15;4.50;;;24.70;99.90;;;;;;5053199;28;20040;-69
2022/08/21 11:20:59;;;;;;;14.90;3.80;;;24.60;99.90;;;;;;5053235;28;20477;-69
2022/08/21 11:23:46;;;;;;;13.30;2.95;;;24.90;99.90;;;;;;5053485;28;20025;-69
2022/08/21 11:26:47;;;;;;;15.70;2.85;;;25.10;99.90;;;;;;5053070;28;20043;-69
2022/08/21 11:29:24;;;;;;;14.77;3.30;;;25.40;99.90;;;;;;5030694;28;20404;-70
2022/08/21 11:32:21;;;;;;;18.90;3.00;;;25.80;99.90;;;;;;5053407;28;20100;-70
2022/08/21 11:35:00;;;;;;;17.33;3.70;;;25.80;99.90;;;;;;5053412;28;20032;-68
2022/08/21 11:38:04;;;;;;;20.20;3.80;;;25.00;99.90;;;;;;5052930;28;20029;-69
2022/08/21 11:40:42;;;;;;;14.95;3.28;;;24.10;99.90;;;;;;5052961;28;20029;-70
2022/08/21 11:43:14;;;;;;;25.73;3.85;;;23.60;99.90;;;;;;5053028;28;20109;-67
2022/08/21 11:45:49;;;;;;;19.40;3.83;;;23.40;99.90;;;;;;5053025;28;20085;-67
2022/08/21 11:48:42;;;;;;;20.30;3.40;;;23.10;99.90;;;;;;5056596;28;20033;-69
2022/08/21 11:51:15;;;;;;;15.43;3.65;;;23.00;99.90;;;;;;5057223;28;20087;-68
2022/08/21 11:54:08;;;;;;;19.33;3.67;;;22.90;99.90;;;;;;5056775;28;20025;-68
2022/08/21 11:56:41;;;;;;;13.45;3.85;;;22.90;99.90;;;;;;5054275;28;20031;-69
2022/08/21 11:59:19;;;;;;;;;;;22.60;99.90;;;;;;5057530;28;20055;-69
2022/08/21 12:01:48;;;;;;;23.45;3.58;;;22.60;99.90;;;;;;5057035;28;19905;-67
2022/08/21 12:04:22;;;;;;;20.05;3.72;;;23.00;99.90;;;;;;5056716;28;20024;-67
2022/08/21 12:06:49;;;;;;;17.40;3.58;;;23.60;99.90;;;;;;5056636;28;20079;-69
2022/08/21 12:09:23;;;;;;;17.63;4.00;;;24.10;99.90;;;;;;5056686;28;20025;-69
2022/08/21 12:12:22;;;;;;;18.05;3.40;;;24.80;99.90;;;;;;5056531;28;20028;-69
2022/08/21 12:14:50;;;;;;;20.10;4.07;;;25.30;99.90;;;;;;5056879;28;20021;-69
2022/08/21 12:17:24;;;;;;;27.90;4.07;;;25.30;99.90;;;;;;5056590;28;20053;-67
2022/08/21 12:20:02;;;;;;;16.80;3.58;;;25.80;99.90;;;;;;5056447;28;20033;-67
2022/08/21 12:22:39;;;;;;;24.02;4.10;;;25.80;99.90;;;;;;5055067;28;20154;-69
2022/08/21 12:25:11;;;;;;;15.80;4.28;;;26.30;99.90;;;;;;5056222;28;20028;-69
2022/08/21 12:27:52;;;;;;;23.17;4.50;;;25.50;99.90;;;;;;5056544;28;20366;-69
2022/08/21 12:30:40;;;;;;;20.42;3.90;;;25.10;99.90;;;;;;5056370;28;20032;-68
2022/08/21 12:33:18;;;;;;;27.65;3.75;;;24.60;99.90;;;;;;5056296;28;20087;-67
2022/08/21 12:35:44;;;;;;;15.88;3.38;;;24.60;99.90;;;;;;5056387;28;20484;-67
2022/08/21 12:38:19;;;;;;;15.70;3.50;;;25.80;99.90;;;;;;5056014;28;20025;-67
2022/08/21 12:40:58;;;;;;;17.63;3.92;;;25.90;99.90;;;;;;5056110;28;20021;-67
2022/08/21 12:43:35;;;;;;;20.98;3.92;;;25.00;99.90;;;;;;5055938;28;20396;-67
2022/08/21 12:46:04;;;;;;;15.73;3.50;;;24.90;99.90;;;;;;5056223;28;20029;-67
2022/08/21 12:48:33;;;;;;;24.08;4.45;;;25.30;99.90;;;;;;5055651;28;20059;-67
2022/08/21 12:51:18;;;;;;;13.27;3.00;;;24.80;99.90;;;;;;5055709;28;20042;-67
2022/08/21 12:53:58;;;;;;;21.67;4.30;;;24.30;99.90;;;;;;5054563;28;20370;-67